createdAt,value
2022-08-18T00:01:16.898Z,5.50
2022-08-18T00:06:22.107Z,6.10
2022-08-18T00:11:26.031Z,6.10
2022-08-18T00:16:29.596Z,5.70
2022-08-18T00:21:34.453Z,5.50
2022-08-18T00:26:37.858Z,5.10
2022-08-18T00:31:41.270Z,5.50
2022-08-18T00:36:44.685Z,5.80
2022-08-18T00:41:47.994Z,6.50
2022-08-18T00:46:51.408Z,6.80
2022-08-18T00:51:55.541Z,6.10
2022-08-18T00:57:02.226Z,6.00
2022-08-18T01:02:10.757Z,5.70
2022-08-18T01:07:30.199Z,6.20
2022-08-18T01:12:45.134Z,6.20
2022-08-18T01:18:08.515Z,5.90
2022-08-18T01:23:23.097Z,5.80
2022-08-18T01:28:32.634Z,6.30
2022-08-18T01:33:43.124Z,7.10
2022-08-18T01:38:53.400Z,6.40
2022-08-18T01:43:56.811Z,6.40
2022-08-18T01:49:01.607Z,6.40
2022-08-18T01:54:05.451Z,6.70
2022-08-18T02:09:43.926Z,6.80
2022-08-18T02:14:47.399Z,6.30
2022-08-18T02:19:50.812Z,6.00
2022-08-18T02:24:54.122Z,6.30
2022-08-18T02:30:00.149Z,7.10
2022-08-18T02:35:05.870Z,6.50
2022-08-18T02:40:15.550Z,7.20
2022-08-18T02:45:19.961Z,6.90
2022-08-18T02:50:23.580Z,6.50
2022-08-18T02:55:29.655Z,6.60
2022-08-18T03:00:32.967Z,6.20
2022-08-18T03:05:36.278Z,7.80
2022-08-18T03:10:39.588Z,7.50
2022-08-18T03:15:43.001Z,6.90
2022-08-18T03:20:47.130Z,6.80
2022-08-18T03:25:51.826Z,6.80
2022-08-18T03:30:56.107Z,7.00
2022-08-18T03:36:07.437Z,7.80
2022-08-18T03:41:13.998Z,6.50
2022-08-18T03:46:19.800Z,7.20
2022-08-18T03:51:26.953Z,7.10
2022-08-18T03:56:34.039Z,7.30
2022-08-18T04:01:41.019Z,6.40
2022-08-18T04:06:50.822Z,6.80
2022-08-18T04:11:54.976Z,7.50
2022-08-18T04:16:59.901Z,6.80
2022-08-18T04:22:04.654Z,6.50
2022-08-18T04:27:07.957Z,6.70
2022-08-18T04:32:11.371Z,6.30
2022-08-18T04:37:15.716Z,5.70
2022-08-18T04:42:19.126Z,5.70
2022-08-18T04:47:22.638Z,6.50
2022-08-18T04:57:47.767Z,6.70
2022-08-18T05:02:54.894Z,6.60
2022-08-18T05:07:58.405Z,6.70
2022-08-18T05:13:02.024Z,6.40
2022-08-18T05:18:05.643Z,6.00
2022-08-18T05:23:09.979Z,5.80
2022-08-18T05:33:18.338Z,5.60
2022-08-18T05:43:24.960Z,8.00
2022-08-18T05:48:28.373Z,6.50
2022-08-18T05:53:51.039Z,6.00
2022-08-18T05:58:57.562Z,6.30
2022-08-18T06:04:31.446Z,5.50
2022-08-18T06:09:44.599Z,7.50
2022-08-18T06:14:48.030Z,7.40
2022-08-18T06:20:14.637Z,6.20
2022-08-18T06:25:28.275Z,5.40
2022-08-18T06:30:55.490Z,5.10
2022-08-18T06:36:24.604Z,5.00
2022-08-18T06:41:49.320Z,5.00
2022-08-18T06:47:34.409Z,5.20
2022-08-18T06:52:51.441Z,5.30
2022-08-18T06:58:05.755Z,4.50
2022-08-18T07:03:16.353Z,4.60
2022-08-18T07:08:35.669Z,4.20
2022-08-18T07:13:41.956Z,4.70
2022-08-18T07:18:45.190Z,3.70
2022-08-18T07:24:23.765Z,3.80
2022-08-18T07:29:27.695Z,3.70
2022-08-18T07:34:41.280Z,4.50
2022-08-18T07:40:03.227Z,3.50
2022-08-18T07:45:36.346Z,4.00
2022-08-18T07:51:08.488Z,4.30
2022-08-18T07:56:27.609Z,4.00
2022-08-18T08:02:16.116Z,3.40
2022-08-18T08:07:30.047Z,3.30
2022-08-18T08:13:08.763Z,3.70
2022-08-18T08:18:44.756Z,3.80
2022-08-18T08:23:53.843Z,3.70
2022-08-18T08:29:25.785Z,4.10
2022-08-18T08:34:56.134Z,3.50
2022-08-18T08:40:08.704Z,3.30
2022-08-18T08:45:27.227Z,3.10
2022-08-18T08:50:36.802Z,3.40
2022-08-18T08:55:48.771Z,3.00
2022-08-18T09:00:53.748Z,3.20
2022-08-18T09:06:11.746Z,2.50
2022-08-18T09:11:35.492Z,3.70
2022-08-18T09:16:38.702Z,12.50
2022-08-18T09:22:00.547Z,4.30
2022-08-18T09:27:03.711Z,3.70
2022-08-18T09:32:19.253Z,2.90
2022-08-18T09:37:47.548Z,2.20
2022-08-18T09:48:43.394Z,2.60
2022-08-18T09:59:13.284Z,3.40
2022-08-18T10:04:52.562Z,2.40
2022-08-18T10:11:00.002Z,2.70
2022-08-18T10:16:51.103Z,2.50
2022-08-18T10:21:58.704Z,2.30
2022-08-18T10:27:13.694Z,3.00
2022-08-18T10:32:23.452Z,2.10
2022-08-18T10:37:46.543Z,2.50
2022-08-18T10:43:45.289Z,2.50
2022-08-18T10:49:26.013Z,3.10
2022-08-18T10:54:35.265Z,2.90
2022-08-18T11:00:15.070Z,2.60
2022-08-18T11:05:24.548Z,2.20
2022-08-18T11:11:06.683Z,2.50
2022-08-18T11:16:35.073Z,2.60
2022-08-18T11:21:51.382Z,2.50
2022-08-18T11:27:04.357Z,2.90
2022-08-18T11:32:19.262Z,2.40
2022-08-18T11:43:21.690Z,2.80
2022-08-18T11:49:01.486Z,2.90
2022-08-18T11:54:13.668Z,2.40
2022-08-18T11:59:53.003Z,2.40
2022-08-18T12:04:56.815Z,2.80
2022-08-18T12:10:17.121Z,2.40
2022-08-18T12:15:29.556Z,2.50
2022-08-18T12:20:51.215Z,2.30
2022-08-18T12:25:54.797Z,2.40
2022-08-18T12:30:58.262Z,2.20
2022-08-18T12:36:05.763Z,2.20
2022-08-18T12:41:12.881Z,2.30
2022-08-18T12:46:16.480Z,2.00
2022-08-18T12:51:19.792Z,2.10
2022-08-18T12:56:31.326Z,2.20
2022-08-18T13:01:36.864Z,2.60
2022-08-18T13:06:59.177Z,2.50
2022-08-18T13:12:09.981Z,2.40
2022-08-18T13:17:32.720Z,3.50
2022-08-18T13:22:41.864Z,3.10
2022-08-18T13:27:45.539Z,3.20
2022-08-18T13:33:00.633Z,2.70
2022-08-18T13:38:14.624Z,2.60
2022-08-18T13:43:30.799Z,3.10
2022-08-18T13:48:34.423Z,2.60
2022-08-18T13:53:50.672Z,2.50
2022-08-18T13:58:54.762Z,2.40
2022-08-18T14:03:58.276Z,2.50
2022-08-18T14:09:01.790Z,2.40
2022-08-18T14:14:24.046Z,3.10
2022-08-18T14:19:48.885Z,2.30
2022-08-18T14:25:13.167Z,2.40
2022-08-18T14:30:18.841Z,2.50
2022-08-18T14:36:04.417Z,2.10
2022-08-18T14:40:49.157Z,3.10
2022-08-18T14:45:58.041Z,2.20
2022-08-18T14:51:28.985Z,3.90
2022-08-18T14:56:33.364Z,4.00
2022-08-18T15:01:42.765Z,6.40
2022-08-18T15:06:56.417Z,7.90
2022-08-18T15:12:01.374Z,6.60
2022-08-18T15:17:11.744Z,4.00
2022-08-18T15:22:35.237Z,3.70
2022-08-18T15:27:42.333Z,4.20
2022-08-18T15:32:49.740Z,3.20
2022-08-18T15:37:55.107Z,2.90
2022-08-18T15:43:02.416Z,3.90
2022-08-18T15:48:06.852Z,6.70
2022-08-18T15:53:12.110Z,8.10
2022-08-18T15:58:22.076Z,10.70
2022-08-18T16:03:25.799Z,11.60
2022-08-18T16:08:29.317Z,9.60
2022-08-18T16:13:32.682Z,8.10
2022-08-18T16:18:36.044Z,6.60
2022-08-18T16:23:41.301Z,6.40
2022-08-18T16:28:46.813Z,5.80
2022-08-18T16:33:49.982Z,5.10
2022-08-18T16:38:58.213Z,4.30
2022-08-18T16:44:02.409Z,4.20
2022-08-18T16:49:08.183Z,3.60
2022-08-18T16:54:14.761Z,2.80
2022-08-18T16:59:36.178Z,2.70
2022-08-18T17:04:40.503Z,2.70
2022-08-18T17:09:43.705Z,3.00
2022-08-18T17:14:51.996Z,3.00
2022-08-18T17:19:55.514Z,2.50
2022-08-18T17:25:02.446Z,3.00
2022-08-18T17:30:08.389Z,2.80
2022-08-18T17:35:26.302Z,2.80
2022-08-18T17:40:50.492Z,3.00
2022-08-18T17:46:16.378Z,3.40
2022-08-18T17:51:42.499Z,3.90
2022-08-18T17:57:16.555Z,3.60
2022-08-18T18:02:30.133Z,3.50
2022-08-18T18:07:52.224Z,5.20
2022-08-18T18:13:13.693Z,6.50
2022-08-18T18:18:32.570Z,4.60
2022-08-18T18:23:41.681Z,4.20
2022-08-18T18:28:45.132Z,3.30
2022-08-18T18:33:57.092Z,4.80
2022-08-18T18:39:33.709Z,3.90
2022-08-18T18:44:37.569Z,3.90
2022-08-18T18:49:53.777Z,3.50
2022-08-18T18:55:10.043Z,3.90
2022-08-18T19:00:20.652Z,3.60
2022-08-18T19:05:35.455Z,4.30
2022-08-18T19:11:01.907Z,3.40
2022-08-18T19:16:23.915Z,3.30
2022-08-18T19:22:03.800Z,3.70
2022-08-18T19:27:01.419Z,9.50
2022-08-18T19:32:14.562Z,5.10
2022-08-18T19:37:57.121Z,3.50
2022-08-18T19:43:36.332Z,3.80
2022-08-18T19:48:58.070Z,4.10
2022-08-18T19:55:00.165Z,3.70
2022-08-18T20:00:14.019Z,3.30
2022-08-18T20:05:27.778Z,6.50
2022-08-18T20:10:40.713Z,5.30
2022-08-18T20:21:36.866Z,4.20
2022-08-18T20:26:49.523Z,4.20
2022-08-18T20:32:00.181Z,4.20
2022-08-18T20:37:09.706Z,4.90
2022-08-18T20:42:21.805Z,4.60
2022-08-18T20:47:54.890Z,3.60
2022-08-18T20:53:37.110Z,4.50
2022-08-18T20:58:54.250Z,5.20
2022-08-18T21:04:00.076Z,4.80
2022-08-18T21:09:05.784Z,4.60
2022-08-18T21:14:09.812Z,4.80
2022-08-18T21:19:25.617Z,4.30
2022-08-18T21:24:37.629Z,4.70
2022-08-18T21:29:47.160Z,5.50
2022-08-18T21:34:52.648Z,5.50
2022-08-18T21:39:59.643Z,4.60
2022-08-18T21:45:03.267Z,5.00
2022-08-18T21:50:23.362Z,5.00
2022-08-18T21:55:55.341Z,4.70
2022-08-18T22:01:10.853Z,4.90
2022-08-18T22:06:20.720Z,5.50
2022-08-18T22:12:00.366Z,5.50
2022-08-18T22:17:27.034Z,4.70
2022-08-18T22:22:49.472Z,5.00
2022-08-18T22:27:53.929Z,5.70
2022-08-18T22:32:57.240Z,5.50
2022-08-18T22:38:01.063Z,5.80
2022-08-18T22:43:04.274Z,6.60
2022-08-18T22:48:07.585Z,6.40
2022-08-18T22:53:10.894Z,5.80
2022-08-18T22:58:16.007Z,5.50
2022-08-18T23:03:24.806Z,6.00
2022-08-18T23:08:54.237Z,6.60
2022-08-18T23:13:52.095Z,7.60
2022-08-18T23:23:58.613Z,7.50
2022-08-18T23:29:04.024Z,7.70
2022-08-18T23:34:07.384Z,7.70
2022-08-18T23:39:11.110Z,7.60
2022-08-18T23:44:15.095Z,7.30
2022-08-18T23:49:19.060Z,7.10
2022-08-18T23:54:27.344Z,8.00
2022-08-18T23:59:30.800Z,7.00
